Time;durP1;ratioP1;P1;durP2;ratioP2;P2;SDS_P1;SDS_P2;PMS_P1;PMS_P2;Temp;Humidity;BMP_temperature;BMP_pressure;BME280_temperature;BME280_humidity;BME280_pressure;Samples;Min_cycle;Max_cycle;Signal;HPM_P1;HPM_P2
2022/03/10 00:00:09;;;;;;;24.85;11.63;;;;;;;;;;4995343;28;20027;-81
2022/03/10 00:02:35;;;;;;;26.45;12.25;;;;;;;;;;4995800;28;20460;-82
2022/03/10 00:05:01;;;;;;;25.23;11.82;;;;;;;;;;4996530;28;20140;-81
2022/03/10 00:07:27;;;;;;;25.30;11.07;;;;;;;;;;4997508;28;20087;-83
2022/03/10 00:09:53;;;;;;;27.15;12.43;;;;;;;;;;4996763;28;20459;-82
2022/03/10 00:12:19;;;;;;;20.63;10.43;;;;;;;;;;4994821;28;20073;-83
2022/03/10 00:14:45;;;;;;;23.60;11.68;;;;;;;;;;4998505;28;20026;-83
2022/03/10 00:17:11;;;;;;;31.55;12.32;;;;;;;;;;5006158;28;20026;-83
2022/03/10 00:19:37;;;;;;;26.88;11.98;;;;;;;;;;5011799;28;20034;-82
2022/03/10 00:22:03;;;;;;;28.25;12.25;;;;;;;;;;4998246;28;20536;-84
2022/03/10 00:24:29;;;;;;;28.70;12.52;;;;;;;;;;4998591;28;20089;-83
2022/03/10 00:26:55;;;;;;;24.50;12.25;;;;;;;;;;4998593;28;20038;-83
2022/03/10 00:29:21;;;;;;;32.63;13.25;;;;;;;;;;4997950;28;20031;-81
2022/03/10 00:31:47;;;;;;;23.52;11.23;;;;;;;;;;5001928;28;20037;-83
2022/03/10 00:34:14;;;;;;;23.98;12.07;;;;;;;;;;5018851;28;20022;-82
2022/03/10 00:36:40;;;;;;;27.73;12.70;;;;;;;;;;5016246;28;20089;-83
2022/03/10 00:39:06;;;;;;;25.90;11.82;;;;;;;;;;5017440;28;20034;-82
2022/03/10 00:41:32;;;;;;;26.17;12.07;;;;;;;;;;5016822;28;20108;-83
2022/03/10 00:43:58;;;;;;;30.70;12.00;;;;;;;;;;5001233;28;20085;-83
2022/03/10 00:46:24;;;;;;;32.97;13.05;;;;;;;;;;5009016;28;20744;-80
2022/03/10 00:48:50;;;;;;;34.13;12.98;;;;;;;;;;5009317;28;20097;-81
2022/03/10 00:51:16;;;;;;;31.23;12.57;;;;;;;;;;5010192;28;20026;-82
2022/03/10 00:53:42;;;;;;;29.50;13.75;;;;;;;;;;5009806;28;20344;-81
2022/03/10 00:56:08;;;;;;;30.15;13.95;;;;;;;;;;5008487;28;20053;-82
2022/03/10 00:58:34;;;;;;;26.85;12.85;;;;;;;;;;5008417;28;20066;-81
2022/03/10 01:01:00;;;;;;;25.73;13.10;;;;;;;;;;5008721;28;20080;-81
2022/03/10 01:03:26;;;;;;;24.02;12.55;;;;;;;;;;5007852;28;20026;-82
2022/03/10 01:05:52;;;;;;;25.52;12.63;;;;;;;;;;5023135;28;20034;-80
2022/03/10 01:08:18;;;;;;;26.92;11.55;;;;;;;;;;5028051;28;20037;-82
2022/03/10 01:10:44;;;;;;;24.13;11.27;;;;;;;;;;5028378;28;20036;-80
2022/03/10 01:13:14;;;;;;;29.23;12.77;;;;;;;;;;5026578;28;20034;-82
2022/03/10 01:15:41;;;;;;;30.73;12.85;;;;;;;;;;5028116;28;20036;-81
2022/03/10 01:18:08;;;;;;;28.67;13.02;;;;;;;;;;5011829;28;20023;-82
2022/03/10 01:20:34;;;;;;;33.60;13.07;;;;;;;;;;5008951;28;20037;-82
2022/03/10 01:23:00;;;;;;;26.25;12.10;;;;;;;;;;5007360;28;20034;-81
2022/03/10 01:25:26;;;;;;;24.40;12.18;;;;;;;;;;5008713;28;20363;-82
2022/03/10 01:27:52;;;;;;;31.67;12.57;;;;;;;;;;5008238;28;20030;-82
2022/03/10 01:30:18;;;;;;;31.35;12.15;;;;;;;;;;5007079;28;20057;-82
2022/03/10 01:32:44;;;;;;;29.98;12.38;;;;;;;;;;5008463;28;20030;-80
2022/03/10 01:35:10;;;;;;;30.92;12.95;;;;;;;;;;5008118;28;20482;-82
2022/03/10 01:37:37;;;;;;;28.55;12.63;;;;;;;;;;5019750;28;20053;-81
2022/03/10 01:40:04;;;;;;;27.17;11.98;;;;;;;;;;5026741;28;20018;-80
2022/03/10 01:42:29;;;;;;;27.27;12.50;;;;;;;;;;5028830;28;20160;-79
2022/03/10 01:44:56;;;;;;;30.17;12.55;;;;;;;;;;5024173;28;20474;-81
2022/03/10 01:47:22;;;;;;;28.88;12.93;;;;;;;;;;5005236;28;20025;-81
2022/03/10 01:49:48;;;;;;;27.00;11.35;;;;;;;;;;5010216;28;20050;-82
2022/03/10 01:52:15;;;;;;;27.20;12.07;;;;;;;;;;5005588;28;20087;-80
2022/03/10 01:54:41;;;;;;;28.30;12.98;;;;;;;;;;5004235;28;20490;-81
2022/03/10 01:57:09;;;;;;;26.67;11.90;;;;;;;;;;5005095;28;20045;-81
2022/03/10 01:59:35;;;;;;;29.05;12.90;;;;;;;;;;5006103;28;20425;-81
2022/03/10 02:02:01;;;;;;;30.75;13.02;;;;;;;;;;5006092;28;20034;-81
2022/03/10 02:04:27;;;;;;;25.05;12.77;;;;;;;;;;5006149;28;20054;-81
2022/03/10 02:06:54;;;;;;;26.10;11.88;;;;;;;;;;5011330;28;20032;-82
2022/03/10 02:12:05;;;;;;;24.52;11.45;;;;;;;;;;5017418;28;20030;-80
2022/03/10 02:17:22;;;;;;;23.05;10.80;;;;;;;;;;5015189;28;20449;-82
2022/03/10 02:19:52;;;;;;;25.80;11.02;;;;;;;;;;5027470;28;20034;-82
2022/03/10 02:22:20;;;;;;;24.98;11.13;;;;;;;;;;5026620;28;20084;-81
2022/03/10 02:24:46;;;;;;;27.27;12.15;;;;;;;;;;5027175;28;20042;-81
2022/03/10 02:27:13;;;;;;;25.98;11.80;;;;;;;;;;5015248;28;20070;-82
2022/03/10 02:29:41;;;;;;;23.20;10.93;;;;;;;;;;5005259;28;20109;-81
2022/03/10 02:32:07;;;;;;;31.13;11.45;;;;;;;;;;5006584;28;20114;-81
2022/03/10 02:34:34;;;;;;;27.30;12.65;;;;;;;;;;5008564;28;20035;-81
2022/03/10 02:37:00;;;;;;;24.85;12.02;;;;;;;;;;5006837;28;20030;-81
2022/03/10 02:39:25;;;;;;;29.50;12.15;;;;;;;;;;5009967;28;20033;-81
2022/03/10 02:41:51;;;;;;;29.42;11.93;;;;;;;;;;5006616;28;20022;-82
2022/03/10 02:44:17;;;;;;;23.35;11.15;;;;;;;;;;5007365;28;20034;-80
2022/03/10 02:46:43;;;;;;;29.27;11.50;;;;;;;;;;5005771;28;20501;-81
2022/03/10 02:49:09;;;;;;;25.23;11.63;;;;;;;;;;5009077;28;20042;-81
2022/03/10 02:51:35;;;;;;;20.73;11.20;;;;;;;;;;5007856;28;20023;-82
2022/03/10 02:54:01;;;;;;;26.15;11.25;;;;;;;;;;5009451;28;20071;-81
2022/03/10 02:56:27;;;;;;;26.02;11.20;;;;;;;;;;5010443;28;20121;-83
2022/03/10 02:58:53;;;;;;;22.58;11.23;;;;;;;;;;5025663;28;20037;-82
2022/03/10 03:01:19;;;;;;;25.98;12.82;;;;;;;;;;5024522;28;20025;-79
2022/03/10 03:03:45;;;;;;;27.60;11.65;;;;;;;;;;5025599;28;20029;-80
2022/03/10 03:06:11;;;;;;;26.30;11.77;;;;;;;;;;5026307;28;20036;-81
2022/03/10 03:08:37;;;;;;;27.05;11.57;;;;;;;;;;5025550;28;20120;-82
2022/03/10 03:11:03;;;;;;;28.90;12.57;;;;;;;;;;5026458;28;20042;-81
2022/03/10 03:13:29;;;;;;;22.48;11.80;;;;;;;;;;5025091;28;20528;-81
2022/03/10 03:15:56;;;;;;;28.17;12.15;;;;;;;;;;5027229;28;20434;-81
2022/03/10 03:18:22;;;;;;;27.38;12.02;;;;;;;;;;5010325;28;20055;-81
2022/03/10 03:20:48;;;;;;;27.50;11.45;;;;;;;;;;5017722;28;20033;-83
2022/03/10 03:23:14;;;;;;;27.95;12.32;;;;;;;;;;5029401;28;20056;-83
2022/03/10 03:25:39;;;;;;;26.98;11.50;;;;;;;;;;5030231;28;20037;-81
2022/03/10 03:28:05;;;;;;;23.85;11.68;;;;;;;;;;5030061;28;20022;-81
2022/03/10 03:30:31;;;;;;;26.25;11.85;;;;;;;;;;5030443;28;20026;-82
2022/03/10 03:32:57;;;;;;;23.40;11.15;;;;;;;;;;5028557;28;20033;-82
2022/03/10 03:35:25;;;;;;;25.10;12.40;;;;;;;;;;5028724;28;20017;-81
2022/03/10 03:37:51;;;;;;;27.60;12.07;;;;;;;;;;5025741;28;20045;-81
2022/03/10 03:40:17;;;;;;;21.92;11.15;;;;;;;;;;5008400;28;20049;-81
2022/03/10 03:42:43;;;;;;;23.80;11.75;;;;;;;;;;5003738;28;20042;-81
2022/03/10 03:45:10;;;;;;;29.58;13.45;;;;;;;;;;5002369;28;20034;-81
2022/03/10 03:47:36;;;;;;;30.55;13.27;;;;;;;;;;5014305;28;20033;-80
2022/03/10 03:50:02;;;;;;;31.25;12.25;;;;;;;;;;5011393;28;20106;-81
2022/03/10 03:52:28;;;;;;;31.73;12.40;;;;;;;;;;5016562;28;20052;-82
2022/03/10 03:54:54;;;;;;;23.25;11.73;;;;;;;;;;5026002;28;20018;-80
2022/03/10 03:57:20;;;;;;;28.67;12.95;;;;;;;;;;5026840;28;20441;-82
2022/03/10 03:59:46;;;;;;;31.13;13.15;;;;;;;;;;5027444;28;20036;-80
2022/03/10 04:02:12;;;;;;;22.80;11.75;;;;;;;;;;5025844;28;20137;-79
2022/03/10 04:04:38;;;;;;;25.92;12.07;;;;;;;;;;5026575;28;20038;-78
2022/03/10 04:07:04;;;;;;;28.40;11.65;;;;;;;;;;5017145;28;20031;-80
2022/03/10 04:09:30;;;;;;;25.35;11.48;;;;;;;;;;5010354;28;20030;-80
2022/03/10 04:11:56;;;;;;;30.08;12.55;;;;;;;;;;5009538;28;20030;-82
2022/03/10 04:14:22;;;;;;;28.05;12.10;;;;;;;;;;5011185;28;20032;-82
2022/03/10 04:16:48;;;;;;;25.83;11.00;;;;;;;;;;5013476;28;20052;-81
2022/03/10 04:19:14;;;;;;;25.83;12.15;;;;;;;;;;5029259;28;20034;-82
2022/03/10 04:21:40;;;;;;;29.13;11.95;;;;;;;;;;5031168;28;20026;-81
2022/03/10 04:24:06;;;;;;;34.40;12.02;;;;;;;;;;5030437;28;20033;-81
2022/03/10 04:26:33;;;;;;;28.23;11.65;;;;;;;;;;5031806;28;20524;-81
2022/03/10 04:28:59;;;;;;;26.17;11.65;;;;;;;;;;5025293;28;20029;-81
2022/03/10 04:31:25;;;;;;;23.88;11.68;;;;;;;;;;5008922;28;20019;-80
2022/03/10 04:33:51;;;;;;;31.58;13.27;;;;;;;;;;5008575;28;20030;-80
2022/03/10 04:36:17;;;;;;;27.35;11.63;;;;;;;;;;5010461;28;20042;-80
2022/03/10 04:38:43;;;;;;;25.77;12.60;;;;;;;;;;5028393;28;20037;-81
2022/03/10 04:41:09;;;;;;;27.02;11.80;;;;;;;;;;5009430;28;20034;-79
2022/03/10 04:43:35;;;;;;;25.92;12.20;;;;;;;;;;5008428;28;20033;-80
2022/03/10 04:46:03;;;;;;;24.55;11.68;;;;;;;;;;5007037;28;20092;-80
2022/03/10 04:48:29;;;;;;;25.25;12.20;;;;;;;;;;5008677;28;20042;-82
2022/03/10 04:50:55;;;;;;;28.45;12.05;;;;;;;;;;5010724;28;20029;-80
2022/03/10 04:53:21;;;;;;;27.77;11.98;;;;;;;;;;5026921;28;20156;-81
2022/03/10 04:55:47;;;;;;;29.77;13.15;;;;;;;;;;5029207;28;20418;-79
2022/03/10 04:58:13;;;;;;;22.58;11.63;;;;;;;;;;5007782;28;20102;-80
2022/03/10 05:00:39;;;;;;;29.55;13.75;;;;;;;;;;5008106;28;20389;-81
2022/03/10 05:03:05;;;;;;;29.77;12.60;;;;;;;;;;5009572;28;20022;-80
2022/03/10 05:05:31;;;;;;;25.80;13.98;;;;;;;;;;5009571;28;20031;-81
2022/03/10 05:07:57;;;;;;;30.75;14.48;;;;;;;;;;5009340;28;20026;-80
2022/03/10 05:10:23;;;;;;;32.03;15.02;;;;;;;;;;5009571;28;20026;-80
2022/03/10 05:12:51;;;;;;;28.15;14.32;;;;;;;;;;5009400;28;20090;-81
2022/03/10 05:15:18;;;;;;;32.55;14.45;;;;;;;;;;5008735;28;20026;-81
2022/03/10 05:17:44;;;;;;;29.27;12.65;;;;;;;;;;5011386;28;20019;-81
2022/03/10 05:20:10;;;;;;;31.95;13.23;;;;;;;;;;5009637;28;20093;-82
2022/03/10 05:22:43;;;;;;;28.98;13.63;;;;;;;;;;5016741;28;20022;-81
2022/03/10 05:25:09;;;;;;;25.92;12.98;;;;;;;;;;5028248;28;20104;-80
2022/03/10 05:27:35;;;;;;;30.30;12.85;;;;;;;;;;5026812;28;20026;-81
2022/03/10 05:30:02;;;;;;;29.38;13.35;;;;;;;;;;5025202;28;20037;-81
2022/03/10 05:32:27;;;;;;;28.15;12.45;;;;;;;;;;5027166;28;20026;-82
2022/03/10 05:34:54;;;;;;;31.00;12.73;;;;;;;;;;5028898;28;20033;-83
2022/03/10 05:37:21;;;;;;;25.25;12.32;;;;;;;;;;5026950;28;20022;-81
2022/03/10 05:39:47;;;;;;;27.00;12.98;;;;;;;;;;5028151;28;20089;-82
2022/03/10 05:42:13;;;;;;;24.13;11.77;;;;;;;;;;5014275;28;20045;-83
2022/03/10 05:44:39;;;;;;;31.73;13.52;;;;;;;;;;5007608;28;20049;-82
2022/03/10 05:47:06;;;;;;;32.53;13.70;;;;;;;;;;5008055;28;20030;-82
2022/03/10 05:49:32;;;;;;;34.28;14.63;;;;;;;;;;5007763;28;20025;-82
2022/03/10 05:51:58;;;;;;;33.60;14.75;;;;;;;;;;5008199;28;20064;-81
2022/03/10 05:54:24;;;;;;;36.20;14.85;;;;;;;;;;5006481;28;20478;-80
2022/03/10 05:56:50;;;;;;;38.10;14.20;;;;;;;;;;5007994;28;20465;-80
2022/03/10 05:59:16;;;;;;;31.92;14.50;;;;;;;;;;5008559;28;20066;-78
2022/03/10 06:01:42;;;;;;;34.17;14.23;;;;;;;;;;5006879;28;20034;-80
2022/03/10 06:04:08;;;;;;;32.85;14.45;;;;;;;;;;5005761;28;20064;-80
2022/03/10 06:06:34;;;;;;;33.92;14.63;;;;;;;;;;5013868;28;20119;-82
2022/03/10 06:09:00;;;;;;;31.63;13.90;;;;;;;;;;5027547;28;20038;-80
2022/03/10 06:11:26;;;;;;;36.00;14.98;;;;;;;;;;5027364;28;20385;-81
2022/03/10 06:13:52;;;;;;;34.72;14.52;;;;;;;;;;5027371;28;20037;-82
2022/03/10 06:16:18;;;;;;;33.90;14.30;;;;;;;;;;5027217;28;20057;-81
2022/03/10 06:18:44;;;;;;;36.90;13.60;;;;;;;;;;5008164;28;20030;-81
2022/03/10 06:21:10;;;;;;;38.60;15.73;;;;;;;;;;5007922;28;20022;-83
2022/03/10 06:23:36;;;;;;;37.03;14.90;;;;;;;;;;5008542;28;20030;-80
2022/03/10 06:26:02;;;;;;;37.95;13.85;;;;;;;;;;5007651;28;20030;-83
2022/03/10 06:28:30;;;;;;;38.55;15.57;;;;;;;;;;5022362;28;20481;-81
2022/03/10 06:30:56;;;;;;;34.28;14.73;;;;;;;;;;5022824;28;20028;-81
2022/03/10 06:33:22;;;;;;;35.22;13.88;;;;;;;;;;5004720;28;20054;-79
2022/03/10 06:35:48;;;;;;;38.47;15.05;;;;;;;;;;5004744;28;20034;-82
2022/03/10 06:38:14;;;;;;;33.28;15.10;;;;;;;;;;5003785;28;20153;-82
2022/03/10 06:40:40;;;;;;;32.17;13.70;;;;;;;;;;5013870;28;20133;-81
2022/03/10 06:43:06;;;;;;;29.50;13.73;;;;;;;;;;5018690;28;20036;-80
2022/03/10 06:45:32;;;;;;;36.05;14.30;;;;;;;;;;5002577;28;20062;-82
2022/03/10 06:47:58;;;;;;;33.65;15.02;;;;;;;;;;5016117;28;20090;-81
2022/03/10 06:50:24;;;;;;;31.88;14.55;;;;;;;;;;5004194;28;20027;-81
2022/03/10 06:52:53;;;;;;;29.73;14.32;;;;;;;;;;5012932;28;20026;-82
2022/03/10 06:55:19;;;;;;;33.28;15.00;;;;;;;;;;5006924;28;20050;-84
2022/03/10 06:57:46;;;;;;;34.85;14.63;;;;;;;;;;5007412;28;20022;-80
2022/03/10 07:00:12;;;;;;;32.50;13.98;;;;;;;;;;5007065;28;20034;-81
2022/03/10 07:02:38;;;;;;;33.60;14.48;;;;;;;;;;5007485;28;20475;-80
2022/03/10 07:05:04;;;;;;;36.15;13.95;;;;;;;;;;5008558;28;20078;-81
2022/03/10 07:07:30;;;;;;;41.28;14.27;;;;;;;;;;5006048;28;20040;-80
2022/03/10 07:09:56;;;;;;;35.40;15.30;;;;;;;;;;5003922;28;20090;-79
2022/03/10 07:12:22;;;;;;;35.67;15.48;;;;;;;;;;5004538;28;20022;-82
2022/03/10 07:14:48;;;;;;;41.95;14.60;;;;;;;;;;5001916;28;20049;-81
2022/03/10 07:17:14;;;;;;;38.15;15.38;;;;;;;;;;5009169;28;20037;-81
2022/03/10 07:19:40;;;;;;;34.53;14.90;;;;;;;;;;5021484;28;20029;-81
2022/03/10 07:22:06;;;;;;;36.70;15.43;;;;;;;;;;5011843;28;20026;-80
2022/03/10 07:24:32;;;;;;;39.60;15.80;;;;;;;;;;5003109;28;20050;-80
2022/03/10 07:26:58;;;;;;;36.97;16.20;;;;;;;;;;5017669;28;20407;-81
2022/03/10 07:29:25;;;;;;;41.30;15.93;;;;;;;;;;5005124;28;20483;-83
2022/03/10 07:31:51;;;;;;;34.67;14.45;;;;;;;;;;5009922;28;20022;-82
2022/03/10 07:34:17;;;;;;;37.53;16.02;;;;;;;;;;5009374;28;20033;-80
2022/03/10 07:36:43;;;;;;;35.90;16.25;;;;;;;;;;5018329;28;20045;-82
2022/03/10 07:39:09;;;;;;;34.92;15.52;;;;;;;;;;5009008;28;20041;-81
2022/03/10 07:41:35;;;;;;;34.92;13.93;;;;;;;;;;5013045;28;20121;-82
2022/03/10 07:44:01;;;;;;;32.53;14.98;;;;;;;;;;5020852;28;20034;-81
2022/03/10 07:46:27;;;;;;;32.50;14.38;;;;;;;;;;5018985;28;20390;-83
2022/03/10 07:48:53;;;;;;;36.60;15.18;;;;;;;;;;5013201;28;20026;-80
2022/03/10 07:51:20;;;;;;;38.70;16.08;;;;;;;;;;5004203;28;20029;-81
2022/03/10 07:53:46;;;;;;;32.90;15.48;;;;;;;;;;5017109;28;20018;-83
2022/03/10 07:56:12;;;;;;;32.38;15.00;;;;;;;;;;5000825;28;20049;-84
2022/03/10 07:58:38;;;;;;;32.00;15.38;;;;;;;;;;4997237;28;20026;-81
2022/03/10 08:01:04;;;;;;;31.83;15.15;;;;;;;;;;4997260;28;20022;-81
2022/03/10 08:03:30;;;;;;;34.70;16.27;;;;;;;;;;4998099;28;20125;-83
2022/03/10 08:05:56;;;;;;;26.92;14.07;;;;;;;;;;4998207;28;20030;-81
2022/03/10 08:08:22;;;;;;;34.40;15.25;;;;;;;;;;4996894;28;20049;-80
2022/03/10 08:10:48;;;;;;;31.42;15.25;;;;;;;;;;5007170;28;20045;-79
2022/03/10 08:13:14;;;;;;;35.83;15.10;;;;;;;;;;5018247;28;20018;-82
2022/03/10 08:15:42;;;;;;;33.22;14.90;;;;;;;;;;5019251;28;20029;-84
2022/03/10 08:18:08;;;;;;;31.80;14.02;;;;;;;;;;5005397;28;20037;-83
2022/03/10 08:20:34;;;;;;;30.38;15.23;;;;;;;;;;5000442;28;20038;-82
2022/03/10 08:23:00;;;;;;;35.45;15.23;;;;;;;;;;5003904;28;20018;-85
2022/03/10 08:25:26;;;;;;;34.58;15.82;;;;;;;;;;5018385;28;20057;-86
2022/03/10 08:27:52;;;;;;;30.33;14.38;;;;;;;;;;5034681;28;20099;-88
2022/03/10 08:30:18;;;;;;;30.77;14.73;;;;;;;;;;5038140;28;20017;-86
2022/03/10 08:32:45;;;;;;;31.85;14.32;;;;;;;;;;5036955;28;20046;-86
2022/03/10 08:35:11;;;;;;;26.52;14.05;;;;;;;;;;5039084;28;20021;-89
2022/03/10 08:37:37;;;;;;;26.58;14.55;;;;;;;;;;5039137;28;20078;-88
2022/03/10 08:40:03;;;;;;;27.70;14.27;;;;;;;;;;5038760;28;20014;-85
2022/03/10 08:42:29;;;;;;;28.92;14.05;;;;;;;;;;5021317;28;20109;-82
2022/03/10 08:44:55;;;;;;;24.67;13.70;;;;;;;;;;5024703;28;20141;-84
2022/03/10 08:47:21;;;;;;;24.38;14.15;;;;;;;;;;5037204;28;20026;-88
2022/03/10 08:49:47;;;;;;;27.88;14.73;;;;;;;;;;5038120;28;20080;-85
2022/03/10 08:52:13;;;;;;;27.10;14.07;;;;;;;;;;5022184;28;20439;-84
2022/03/10 08:54:39;;;;;;;24.05;13.55;;;;;;;;;;5012929;28;20085;-82
2022/03/10 08:57:05;;;;;;;21.23;13.95;;;;;;;;;;5024601;28;20057;-81
2022/03/10 08:59:31;;;;;;;25.67;13.63;;;;;;;;;;5026327;28;20036;-81
2022/03/10 09:01:57;;;;;;;24.80;13.52;;;;;;;;;;5024696;28;20060;-82
2022/03/10 09:04:23;;;;;;;24.08;13.38;;;;;;;;;;5007661;28;20041;-81
2022/03/10 09:06:49;;;;;;;23.48;13.68;;;;;;;;;;5011700;28;20081;-81
2022/03/10 09:09:16;;;;;;;28.55;13.82;;;;;;;;;;5026214;28;20081;-81
2022/03/10 09:11:42;;;;;;;23.85;14.32;;;;;;;;;;5024063;28;20049;-84
2022/03/10 09:14:08;;;;;;;23.23;13.25;;;;;;;;;;5009641;28;20031;-85
2022/03/10 09:16:34;;;;;;;22.20;13.30;;;;;;;;;;5021319;28;20033;-82
2022/03/10 09:19:00;;;;;;;20.70;13.90;;;;;;;;;;5012805;28;20029;-80
2022/03/10 09:21:27;;;;;;;22.35;13.93;;;;;;;;;;5025300;28;20022;-85
2022/03/10 09:23:53;;;;;;;23.70;14.05;;;;;;;;;;5016024;28;20040;-83
2022/03/10 09:26:19;;;;;;;22.60;13.85;;;;;;;;;;5001494;28;20030;-83
2022/03/10 09:28:45;;;;;;;23.80;15.18;;;;;;;;;;5005943;28;20022;-84
2022/03/10 09:31:12;;;;;;;22.33;14.20;;;;;;;;;;5031987;28;20026;-80
2022/03/10 09:33:39;;;;;;;25.35;13.70;;;;;;;;;;5026372;28;20479;-80
2022/03/10 09:36:05;;;;;;;23.35;14.43;;;;;;;;;;5003073;28;20030;-83
2022/03/10 09:38:31;;;;;;;26.10;15.85;;;;;;;;;;5016226;28;20046;-84
2022/03/10 09:40:57;;;;;;;21.33;14.07;;;;;;;;;;5027012;28;20010;-86
2022/03/10 09:43:27;;;;;;;23.63;15.10;;;;;;;;;;5019585;28;20055;-86
2022/03/10 09:45:53;;;;;;;23.52;15.02;;;;;;;;;;5022848;28;20018;-87
2022/03/10 09:48:19;;;;;;;22.05;14.25;;;;;;;;;;5037148;28;20089;-88
2022/03/10 09:50:49;;;;;;;21.05;13.85;;;;;;;;;;5037885;28;20018;-88
2022/03/10 09:53:15;;;;;;;24.00;14.70;;;;;;;;;;5037298;28;20024;-88
2022/03/10 09:55:41;;;;;;;24.27;14.45;;;;;;;;;;5037620;28;20033;-88
2022/03/10 09:58:08;;;;;;;22.15;14.38;;;;;;;;;;5032331;28;20025;-85
2022/03/10 10:00:34;;;;;;;23.48;14.65;;;;;;;;;;5018052;28;20034;-87
2022/03/10 10:03:00;;;;;;;24.08;15.57;;;;;;;;;;5018960;28;20021;-85
2022/03/10 10:05:26;;;;;;;21.13;14.00;;;;;;;;;;5018817;28;20037;-86
2022/03/10 10:08:08;;;;;;;22.40;14.38;;;;;;;;;;5028314;28;20040;-84
2022/03/10 10:10:35;;;;;;;28.27;15.25;;;;;;;;;;5038511;28;20048;-84
2022/03/10 10:13:06;;;;;;;23.08;14.10;;;;;;;;;;5038391;28;20018;-85
2022/03/10 10:15:35;;;;;;;23.35;15.02;;;;;;;;;;5038430;28;20021;-87
2022/03/10 10:18:01;;;;;;;22.95;14.85;;;;;;;;;;5037629;28;20041;-80
2022/03/10 10:20:31;;;;;;;22.83;14.50;;;;;;;;;;5029654;28;20025;-80
2022/03/10 10:22:57;;;;;;;25.45;14.30;;;;;;;;;;5029644;28;20022;-81
2022/03/10 10:25:23;;;;;;;22.27;13.73;;;;;;;;;;5028196;28;20035;-80
2022/03/10 10:27:49;;;;;;;26.25;13.98;;;;;;;;;;5028546;28;20037;-80
2022/03/10 10:30:15;;;;;;;25.77;15.02;;;;;;;;;;5025035;28;20030;-81
2022/03/10 10:32:44;;;;;;;23.17;14.63;;;;;;;;;;5016994;28;20034;-81
2022/03/10 10:35:21;;;;;;;20.77;13.52;;;;;;;;;;5002813;28;20113;-81
2022/03/10 10:37:49;;;;;;;22.52;13.05;;;;;;;;;;4995754;28;20018;-80
2022/03/10 10:40:20;;;;;;;21.50;14.05;;;;;;;;;;5004854;28;20041;-81
2022/03/10 10:42:46;;;;;;;21.20;13.98;;;;;;;;;;5018046;28;20033;-80
2022/03/10 10:45:30;;;;;;;21.33;12.50;;;;;;;;;;5017466;28;20030;-80
2022/03/10 10:47:59;;;;;;;18.38;13.02;;;;;;;;;;5012335;28;20022;-81
2022/03/10 10:50:25;;;;;;;21.58;13.63;;;;;;;;;;5011778;28;20078;-81
2022/03/10 10:52:51;;;;;;;19.90;13.35;;;;;;;;;;5012503;28;20026;-81
2022/03/10 10:55:17;;;;;;;21.30;13.30;;;;;;;;;;4999414;28;20034;-82
2022/03/10 10:57:44;;;;;;;22.33;13.82;;;;;;;;;;5002771;28;20398;-81
2022/03/10 11:00:14;;;;;;;20.15;13.05;;;;;;;;;;5004458;28;20098;-81
2022/03/10 11:02:44;;;;;;;21.17;14.10;;;;;;;;;;5004067;28;20030;-81
2022/03/10 11:05:12;;;;;;;21.90;13.80;;;;;;;;;;5004563;28;20120;-80
2022/03/10 11:07:39;;;;;;;19.65;13.73;;;;;;;;;;5004615;28;20475;-81
2022/03/10 11:10:07;;;;;;;23.20;13.02;;;;;;;;;;5005725;28;20072;-81
2022/03/10 11:12:34;;;;;;;18.95;13.27;;;;;;;;;;5007330;28;20018;-83
2022/03/10 11:15:01;;;;;;;20.10;13.63;;;;;;;;;;5008209;28;20030;-82
2022/03/10 11:17:27;;;;;;;23.17;12.77;;;;;;;;;;5015702;28;20053;-83
2022/03/10 11:19:56;;;;;;;19.20;12.15;;;;;;;;;;5010202;28;20031;-83
2022/03/10 11:22:23;;;;;;;18.30;12.18;;;;;;;;;;5004299;28;20023;-81
2022/03/10 11:25:07;;;;;;;18.15;11.75;;;;;;;;;;5020830;28;20026;-83
2022/03/10 11:27:36;;;;;;;20.10;12.10;;;;;;;;;;5011598;28;20416;-82
2022/03/10 11:30:03;;;;;;;18.15;10.80;;;;;;;;;;5001308;28;20030;-83
2022/03/10 11:32:30;;;;;;;18.50;11.52;;;;;;;;;;5000201;28;20439;-82
2022/03/10 11:34:58;;;;;;;15.85;10.82;;;;;;;;;;5003231;28;20039;-82
2022/03/10 11:37:34;;;;;;;17.23;10.65;;;;;;;;;;5017376;28;20046;-82
2022/03/10 11:40:00;;;;;;;15.45;9.77;;;;;;;;;;5023527;28;20030;-83
2022/03/10 11:42:28;;;;;;;15.25;10.57;;;;;;;;;;5023698;28;20021;-83
2022/03/10 11:45:07;;;;;;;13.90;8.88;;;;;;;;;;5014543;28;20462;-80
2022/03/10 11:47:34;;;;;;;12.35;8.23;;;;;;;;;;5019269;28;20069;-81
2022/03/10 11:50:20;;;;;;;14.50;8.07;;;;;;;;;;5027531;28;20037;-81
2022/03/10 11:52:50;;;;;;;11.63;7.88;;;;;;;;;;5020852;28;20036;-80
2022/03/10 11:55:17;;;;;;;9.30;6.35;;;;;;;;;;5024228;28;20037;-81
2022/03/10 11:58:04;;;;;;;10.00;6.97;;;;;;;;;;5024318;28;20119;-82
2022/03/10 12:01:00;;;;;;;11.85;6.72;;;;;;;;;;5023985;28;20021;-81
2022/03/10 12:03:36;;;;;;;11.73;7.32;;;;;;;;;;5014465;28;20082;-81
2022/03/10 12:06:03;;;;;;;11.48;7.47;;;;;;;;;;5005369;28;20033;-81
2022/03/10 12:08:36;;;;;;;11.80;6.97;;;;;;;;;;5006815;28;20402;-81
2022/03/10 12:11:03;;;;;;;11.52;7.47;;;;;;;;;;5006158;28;20033;-80
2022/03/10 12:13:32;;;;;;;11.32;6.60;;;;;;;;;;5005523;28;20034;-83
2022/03/10 12:15:58;;;;;;;7.55;5.05;;;;;;;;;;5007539;28;20473;-79
2022/03/10 12:18:40;;;;;;;11.02;6.82;;;;;;;;;;5024481;28;20053;-80
2022/03/10 12:21:25;;;;;;;9.40;6.05;;;;;;;;;;5027328;28;20496;-80
2022/03/10 12:23:54;;;;;;;12.60;7.35;;;;;;;;;;5026468;28;20392;-83
2022/03/10 12:26:31;;;;;;;10.07;6.68;;;;;;;;;;5024516;28;20033;-82
2022/03/10 12:28:58;;;;;;;11.32;6.82;;;;;;;;;;5027111;28;20100;-83
2022/03/10 12:31:27;;;;;;;10.68;6.70;;;;;;;;;;5017886;28;20481;-80
2022/03/10 12:33:57;;;;;;;10.13;6.00;;;;;;;;;;5009114;28;20009;-81
2022/03/10 12:36:24;;;;;;;10.38;6.15;;;;;;;;;;5007434;28;20061;-84
2022/03/10 12:38:50;;;;;;;8.98;5.28;;;;;;;;;;5007865;28;20029;-82
2022/03/10 12:41:17;;;;;;;9.88;4.72;;;;;;;;;;5006894;28;20090;-83
2022/03/10 12:43:44;;;;;;;8.27;5.20;;;;;;;;;;5007815;28;20037;-83
2022/03/10 12:46:10;;;;;;;9.90;4.47;;;;;;;;;;5048772;23;20073;-81
2022/03/10 12:49:06;;;;;;;10.35;4.85;;;;;;;;;;5039337;28;20105;-81
2022/03/10 12:51:33;;;;;;;10.13;4.88;;;;;;;;;;5012115;28;20065;-82
2022/03/10 12:54:00;;;;;;;8.88;4.65;;;;;;;;;;5027189;28;20025;-80
2022/03/10 12:56:26;;;;;;;9.25;4.90;;;;;;;;;;5029555;28;20034;-81
2022/03/10 12:58:53;;;;;;;5.80;3.72;;;;;;;;;;5018046;28;20034;-80
2022/03/10 13:01:20;;;;;;;7.10;4.25;;;;;;;;;;5020005;28;20022;-80
2022/03/10 13:03:47;;;;;;;9.80;4.53;;;;;;;;;;5037974;28;20035;-83
2022/03/10 13:06:13;;;;;;;9.85;5.00;;;;;;;;;;5034302;28;20110;-83
2022/03/10 13:08:42;;;;;;;6.88;4.15;;;;;;;;;;5019920;28;20026;-81
2022/03/10 13:11:09;;;;;;;6.32;4.32;;;;;;;;;;5020046;28;20026;-82
2022/03/10 13:13:34;;;;;;;11.80;4.47;;;;;;;;;;5020497;28;20030;-82
2022/03/10 13:16:01;;;;;;;11.35;4.65;;;;;;;;;;5020559;28;20045;-80
2022/03/10 13:18:28;;;;;;;7.88;5.07;;;;;;;;;;5037030;28;20107;-83
2022/03/10 13:20:58;;;;;;;9.07;5.75;;;;;;;;;;5021186;28;20026;-79
2022/03/10 13:23:28;;;;;;;9.07;5.53;;;;;;;;;;5019897;28;20034;-80
2022/03/10 13:25:54;;;;;;;9.73;5.85;;;;;;;;;;5019535;28;20025;-82
2022/03/10 13:28:21;;;;;;;11.93;6.22;;;;;;;;;;5001200;28;20050;-82
2022/03/10 13:30:47;;;;;;;8.27;5.53;;;;;;;;;;5019105;28;20030;-82
2022/03/10 13:33:13;;;;;;;11.13;6.32;;;;;;;;;;5000990;28;20061;-81
2022/03/10 13:35:46;;;;;;;12.88;6.45;;;;;;;;;;5018443;28;20036;-80
2022/03/10 13:38:21;;;;;;;12.32;5.43;;;;;;;;;;5020180;28;20029;-82
2022/03/10 13:40:47;;;;;;;9.68;5.47;;;;;;;;;;5020613;28;20082;-83
2022/03/10 13:43:21;;;;;;;14.38;7.90;;;;;;;;;;5022015;28;20030;-80
2022/03/10 13:45:47;;;;;;;10.65;6.63;;;;;;;;;;5016949;28;20113;-83
2022/03/10 13:48:21;;;;;;;9.77;6.85;;;;;;;;;;5002311;28;20026;-83
2022/03/10 13:50:47;;;;;;;10.73;6.43;;;;;;;;;;5002585;28;20034;-80
2022/03/10 13:53:14;;;;;;;9.15;6.68;;;;;;;;;;4989265;28;20031;-82
2022/03/10 13:55:43;;;;;;;8.38;5.93;;;;;;;;;;5041711;28;20029;-83
2022/03/10 13:58:09;;;;;;;11.27;6.75;;;;;;;;;;5039070;28;20025;-82
2022/03/10 14:00:38;;;;;;;8.98;5.32;;;;;;;;;;5039119;28;20026;-83
2022/03/10 14:03:14;;;;;;;7.45;5.25;;;;;;;;;;5040688;28;20393;-82
2022/03/10 14:05:40;;;;;;;7.38;5.30;;;;;;;;;;5029618;28;20034;-84
2022/03/10 14:08:17;;;;;;;6.35;4.70;;;;;;;;;;5000240;28;20022;-83
2022/03/10 14:10:44;;;;;;;11.35;5.28;;;;;;;;;;4992389;28;20022;-83
2022/03/10 14:13:11;;;;;;;9.23;5.00;;;;;;;;;;5025242;28;20155;-82
2022/03/10 14:15:40;;;;;;;7.75;5.53;;;;;;;;;;5004928;28;20098;-83
2022/03/10 14:18:15;;;;;;;7.82;4.88;;;;;;;;;;5018017;28;20033;-82
2022/03/10 14:20:44;;;;;;;8.15;4.15;;;;;;;;;;5032317;28;20026;-81
2022/03/10 14:23:13;;;;;;;6.50;4.15;;;;;;;;;;5001677;28;20022;-84
2022/03/10 14:25:44;;;;;;;8.13;4.47;;;;;;;;;;4999861;28;20529;-82